Basse Lasne, Belgium
Current Conditions -  °F | °C
As of 1:13 AM on Thursday 27 Nov 2014 (Local Time) from EBBE Reporting Station
Broken Clouds Broken Clouds  
Wind Chill: 46°   Ceiling: 9000
Heat Index: 48°   Visibility: 6mi
Dew Point: 46°   Wind: 5mph
Humidity: 93%   Direction: 150°SSE
Pressure: 29.8"   Gusts: NA
Location:  50.7°N, 4.49°E
Report Text: EBBE 270013Z AUTO 15004KT 9999 FEW023/// SCT042/// BKN090/// 09/08 Q1009 BLU
Loading
Personal Weather Stations






























Interactive Weather Map New forecast layout! Learn more

10-Day Weather Forecast

Advertisements
Track Severe Weather on mobile